• Join FlightAware (Why Join?)
  • Login
  • US Flag 
12:12AM EDT


 

Airport Tracker/Info


-or-


 

Live Flight TrackerFlight Track Log ✈ PAG111 ✈ 21-Jun-2013 ✈ CYWG - CYBV

Flight Track Log - Related Links

Times and Time Zones

All times are in EDT time to prevent confusion due to time zone crossing. See the PAG111 flight status page for this flight to view local times or setup timezone preferences in your user account.

Time Position Orientation Groundspeed Altitude Reporting Facility
EDT Latitude Longitude Course Direction KTS MPH feet Rate Location/Type
04:05PM 49.8833 -97.2333 North 10 12 700  Level Winnipeg Center
04:06PM 49.9167 -97.2333 360° North 160 184 1,700 1,440 Climbing Winnipeg Center
04:07PM 49.9667 -97.2500 348° North 180 207 3,600 1,800 Climbing Winnipeg Center
04:08PM 50.0167 -97.2500 360° North 190 219 5,300 1,620 Climbing Winnipeg Center
04:09PM 50.0667 -97.2833 337° Northwest 190 219 6,900 1,500 Climbing Winnipeg Center
04:10PM 50.1333 -97.2500 18° North 200 230 8,300 1,260 Climbing Winnipeg Center
04:11PM 50.1833 -97.2500 360° North 200 230 9,500 1,200 Climbing Winnipeg Center
04:12PM 50.2782 -97.2000 North  Level FlightAware Approximate
04:12PM 50.2333 -97.2333 12° North 200 230 10,700  Level Winnipeg Center
04:13PM 50.2833 -97.2333 360° North 200 230 12,000 1,260 Climbing Winnipeg Center
04:14PM 50.3500 -97.2000 18° North 210 242 13,300 960 Climbing Winnipeg Center
04:15PM 50.4000 -97.2000 360° North 220 253 14,000 300 Climbing Winnipeg Center
04:16PM 50.4667 -97.2000 360° North 240 276 14,000  Level Winnipeg Center
04:17PM 50.5500 -97.2000 360° North 260 299 14,000  Level Winnipeg Center
04:18PM 50.6167 -97.2000 360° North 260 299 14,000  Level Winnipeg Center
04:19PM 50.7000 -97.1833 North 270 311 14,000  Level Winnipeg Center
04:20PM 50.7667 -97.1833 360° North 270 311 14,000  Level Winnipeg Center
04:21PM 50.8500 -97.1833 360° North 270 311 14,000  Level Winnipeg Center
04:22PM 50.9167 -97.1500 17° North 270 311 14,000 -60 Level Winnipeg Center
04:23PM 51.0000 -97.1500 360° North 270 311 13,900  Descending Winnipeg Center
04:24PM 51.0667 -97.1500 360° North 270 311 14,000  Climbing Winnipeg Center
04:25PM 51.1500 -97.1333 North 270 311 14,000 -120 Level Winnipeg Center
04:26PM 51.2167 -97.1333 360° North 270 311 13,800  Descending Winnipeg Center
04:27PM 51.3000 -97.1333 360° North 270 311 14,000  Climbing Winnipeg Center
04:28PM 51.3833 -97.1333 360° North 270 311 13,900  Descending Winnipeg Center
04:29PM 51.4500 -97.1000 17° North 270 311 14,000  Climbing Winnipeg Center
04:30PM 51.5333 -97.1000 360° North 270 311 14,000 -60 Level Winnipeg Center
04:31PM 51.6000 -97.0667 17° North 270 311 13,900 -660 Descending Winnipeg Center
04:32PM 51.6833 -97.0667 360° North 280 322 12,700 -1,380 Descending Winnipeg Center
04:33PM 51.7667 -97.0667 360° North 290 334 11,200 -1,500 Descending Winnipeg Center
04:34PM 51.8333 -97.0500 North 290 334 9,700 -1,440 Descending Winnipeg Center
04:35PM 51.9167 -97.0167 14° North 290 334 8,400 -1,320 Descending Winnipeg Center
04:37PM 52.0009 -97.0478 North  Level FlightAware Approximate
04:44PM 52.3500 -97.0167 North  Level FlightAware Approximate
04:45PM 52.3589 -97.0167 North  Level Estimated
04:46PM 52.3589 -97.0167 North  Level Estimated
04:47PM 52.3589 -97.0167 North  Level Estimated
04:48PM 52.3589 -97.0167 North  Level Estimated
04:49PM 52.3589 -97.0167 North  Level Estimated
04:50PM 52.3589 -97.0167 North  Level Estimated
04:51PM 52.3589 -97.0167 North  Level Estimated
04:52PM 52.3589 -97.0167 North  Level Estimated
04:53PM 52.3589 -97.0167 North  Level Estimated
04:54PM 52.3589 -97.0167 North  Level Estimated
04:55PM 52.3589 -97.0167 North  Level Estimated
04:56PM 52.3589 -97.0167 North  Level Estimated
04:57PM 52.3589 -97.0167 North  Level Estimated
04:58PM 52.3589 -97.0167 North  Level Estimated
04:59PM 52.3589 -97.0167 North  Level Estimated
05:00PM 52.3589 -97.0167 North  Level Estimated